Terminal Aerodrome Forecast
Issued by NWS

Home | Current Version | Previous Version | Text Only | Print | Product List | Glossary On
Versions: 1 2 3 4 5 6 7 8 9 10 11 12 13 14 15 16 17 18
000
FTUS41 KGYX 182320
TAFLEB
TAF
KLEB 182320Z 1900/1924 18003KT P6SM SKC
     FM190800 00000KT 1/4SM FG VV001
     FM191400 20007KT P6SM SKC
     FM191700 21013G20KT P6SM SKC=

USA.gov is the U.S. government's official web portal to all federal, state and local government web resources and services.